createdAt,value
2023-04-09T00:01:16.394Z,77.02
2023-04-09T00:03:44.247Z,77.04
2023-04-09T00:06:13.041Z,77.19
2023-04-09T00:08:41.304Z,77.17
2023-04-09T00:11:09.683Z,77.00
2023-04-09T00:13:39.698Z,77.07
2023-04-09T00:16:08.919Z,77.51
2023-04-09T00:18:36.969Z,77.43
2023-04-09T00:21:05.061Z,77.12
2023-04-09T00:23:36.700Z,77.50
2023-04-09T00:26:05.095Z,77.28
2023-04-09T00:28:33.004Z,77.44
2023-04-09T00:31:00.758Z,77.23
2023-04-09T00:33:28.553Z,77.14
2023-04-09T00:35:56.339Z,77.35
2023-04-09T00:38:24.645Z,76.97
2023-04-09T00:40:52.939Z,76.93
2023-04-09T00:43:20.790Z,77.03
2023-04-09T00:45:49.075Z,77.19
2023-04-09T00:48:17.675Z,77.13
2023-04-09T00:50:45.494Z,77.35
2023-04-09T00:53:17.950Z,77.26
2023-04-09T00:55:46.379Z,77.29
2023-04-09T00:58:14.706Z,77.52
2023-04-09T01:00:42.736Z,77.58
2023-04-09T01:03:10.734Z,77.59
2023-04-09T01:05:49.635Z,77.26
2023-04-09T01:08:53.499Z,77.51
2023-04-09T01:11:52.744Z,77.70
2023-04-09T01:14:42.151Z,77.80
2023-04-09T01:17:17.387Z,77.55
2023-04-09T01:20:02.370Z,77.71
2023-04-09T01:23:05.471Z,77.72
2023-04-09T01:26:13.747Z,77.83
2023-04-09T01:28:46.635Z,77.86
2023-04-09T01:31:18.664Z,77.91
2023-04-09T01:33:47.740Z,77.71
2023-04-09T01:36:16.624Z,78.10
2023-04-09T01:38:48.786Z,77.87
2023-04-09T01:41:21.633Z,77.96
2023-04-09T01:43:51.691Z,77.82
2023-04-09T01:46:22.152Z,77.55
2023-04-09T01:48:51.359Z,77.90
2023-04-09T01:51:19.704Z,78.06
2023-04-09T01:53:49.507Z,78.26
2023-04-09T01:56:17.777Z,77.91
2023-04-09T01:58:46.004Z,78.01
2023-04-09T02:01:24.399Z,77.74
2023-04-09T02:04:01.024Z,77.94
2023-04-09T02:06:39.555Z,77.96
2023-04-09T02:09:09.865Z,78.08
2023-04-09T02:11:42.462Z,77.61
2023-04-09T02:14:12.537Z,77.59
2023-04-09T02:16:40.805Z,77.76
2023-04-09T02:19:08.573Z,77.90
2023-04-09T02:21:36.567Z,77.74
2023-04-09T02:24:04.397Z,77.93
2023-04-09T02:26:32.322Z,78.07
2023-04-09T02:29:00.127Z,77.90
2023-04-09T02:31:27.886Z,77.86
2023-04-09T02:33:55.724Z,78.02
2023-04-09T02:36:23.646Z,77.81
2023-04-09T02:38:51.683Z,77.87
2023-04-09T02:41:19.659Z,78.01
2023-04-09T02:43:47.488Z,77.93
2023-04-09T02:46:15.449Z,77.75
2023-04-09T02:48:43.192Z,77.98
2023-04-09T02:51:11.014Z,77.61
2023-04-09T02:53:40.842Z,78.08
2023-04-09T02:56:08.687Z,78.06
2023-04-09T02:58:36.498Z,78.11
2023-04-09T03:01:04.920Z,78.02
2023-04-09T03:03:33.365Z,78.15
2023-04-09T03:06:01.209Z,78.16
2023-04-09T03:08:28.909Z,78.09
2023-04-09T03:10:56.723Z,77.98
2023-04-09T03:13:28.478Z,77.90
2023-04-09T03:15:56.660Z,78.44
2023-04-09T03:18:24.406Z,78.01
2023-04-09T03:20:52.234Z,78.21
2023-04-09T03:23:20.320Z,78.65
2023-04-09T03:25:48.174Z,78.08
2023-04-09T03:28:16.026Z,78.38
2023-04-09T03:30:44.178Z,78.26
2023-04-09T03:33:11.878Z,78.19
2023-04-09T03:35:39.782Z,78.21
2023-04-09T03:38:07.709Z,78.52
2023-04-09T03:40:36.633Z,78.24
2023-04-09T03:43:04.569Z,78.22
2023-04-09T03:45:32.726Z,78.56
2023-04-09T03:48:00.798Z,78.50
2023-04-09T03:50:28.832Z,78.52
2023-04-09T03:52:56.691Z,78.40
2023-04-09T03:55:24.416Z,78.28
2023-04-09T03:57:52.675Z,78.46
2023-04-09T04:00:20.815Z,78.54
2023-04-09T04:02:48.692Z,78.20
2023-04-09T04:05:16.792Z,78.35
2023-04-09T04:07:45.131Z,78.45
2023-04-09T04:10:12.994Z,78.66
2023-04-09T04:12:40.929Z,78.89
2023-04-09T04:15:09.837Z,78.82
2023-04-09T04:17:37.796Z,78.72
2023-04-09T04:20:06.357Z,78.70
2023-04-09T04:22:35.399Z,78.61
2023-04-09T04:25:04.711Z,78.82
2023-04-09T04:27:32.639Z,78.82
2023-04-09T04:30:02.256Z,78.70
2023-04-09T04:32:30.592Z,78.62
2023-04-09T04:34:58.371Z,78.82
2023-04-09T04:37:26.219Z,78.86
2023-04-09T04:39:54.216Z,78.91
2023-04-09T04:42:23.226Z,78.57
2023-04-09T04:44:51.253Z,78.72
2023-04-09T04:47:19.593Z,78.78
2023-04-09T04:49:47.638Z,78.76
2023-04-09T04:52:17.668Z,78.78
2023-04-09T04:54:45.715Z,78.77
2023-04-09T04:57:14.003Z,78.67
2023-04-09T04:59:41.990Z,78.68
2023-04-09T05:02:10.333Z,78.82
2023-04-09T05:04:38.543Z,79.15
2023-04-09T05:07:06.373Z,78.95
2023-04-09T05:09:34.967Z,78.95
2023-04-09T05:12:03.150Z,78.98
2023-04-09T05:14:31.663Z,79.02
2023-04-09T05:16:59.685Z,78.90
2023-04-09T05:19:27.455Z,78.93
2023-04-09T05:21:55.175Z,78.91
2023-04-09T05:24:22.865Z,78.94
2023-04-09T05:26:51.328Z,78.94
2023-04-09T05:29:19.069Z,79.04
2023-04-09T05:31:46.856Z,78.97
2023-04-09T05:34:14.707Z,79.05
2023-04-09T05:36:42.540Z,78.97
2023-04-09T05:39:11.106Z,78.92
2023-04-09T05:41:39.169Z,79.00
2023-04-09T05:44:06.932Z,78.96
2023-04-09T05:46:34.723Z,78.96
2023-04-09T05:49:02.638Z,78.91
2023-04-09T05:51:30.459Z,78.67
2023-04-09T05:53:59.489Z,78.69
2023-04-09T05:56:28.231Z,78.95
2023-04-09T05:58:56.148Z,78.71
2023-04-09T06:01:24.112Z,78.74
2023-04-09T06:03:54.062Z,78.74
2023-04-09T06:06:24.866Z,78.63
2023-04-09T06:08:52.887Z,78.73
2023-04-09T06:11:21.860Z,78.76
2023-04-09T06:13:50.347Z,78.76
2023-04-09T06:16:18.985Z,78.87
2023-04-09T06:18:49.776Z,78.83
2023-04-09T06:21:17.548Z,78.90
2023-04-09T06:23:45.331Z,78.91
2023-04-09T06:26:13.080Z,78.94
2023-04-09T06:28:41.448Z,78.95
2023-04-09T06:31:09.916Z,79.01
2023-04-09T06:33:37.630Z,79.00
2023-04-09T06:36:05.625Z,78.90
2023-04-09T06:38:33.526Z,78.98
2023-04-09T06:41:01.242Z,79.23
2023-04-09T06:43:29.554Z,79.18
2023-04-09T06:45:57.977Z,79.12
2023-04-09T06:48:25.807Z,79.17
2023-04-09T06:50:53.629Z,79.12
2023-04-09T06:53:21.528Z,79.19
2023-04-09T06:55:50.105Z,79.44
2023-04-09T06:58:18.280Z,79.37
2023-04-09T07:00:46.000Z,79.33
2023-04-09T07:03:14.896Z,79.10
2023-04-09T07:05:43.193Z,79.11
2023-04-09T07:08:11.857Z,78.88
2023-04-09T07:10:40.197Z,79.03
2023-04-09T07:13:07.993Z,78.92
2023-04-09T07:15:44.992Z,79.01
2023-04-09T07:18:16.240Z,79.33
2023-04-09T07:20:44.421Z,79.39
2023-04-09T07:23:12.793Z,79.24
2023-04-09T07:25:40.898Z,79.08
2023-04-09T07:28:08.670Z,79.33
2023-04-09T07:30:36.415Z,79.12
2023-04-09T07:33:06.947Z,79.40
2023-04-09T07:35:35.476Z,79.20
2023-04-09T07:38:03.814Z,78.79
2023-04-09T07:40:34.746Z,78.72
2023-04-09T07:43:04.555Z,78.90
2023-04-09T07:45:32.357Z,78.78
2023-04-09T07:48:00.979Z,78.77
2023-04-09T07:50:30.438Z,78.85
2023-04-09T07:52:58.731Z,78.87
2023-04-09T07:55:26.550Z,78.95
2023-04-09T07:57:54.818Z,79.08
2023-04-09T08:00:22.908Z,79.20
2023-04-09T08:02:51.148Z,79.18
2023-04-09T08:05:21.987Z,79.17
2023-04-09T08:07:53.687Z,78.94
2023-04-09T08:10:21.518Z,78.90
2023-04-09T08:12:50.380Z,78.90
2023-04-09T08:15:18.170Z,78.83
2023-04-09T08:17:45.950Z,78.66
2023-04-09T08:20:14.429Z,78.99
2023-04-09T08:22:42.867Z,78.73
2023-04-09T08:25:10.942Z,78.63
2023-04-09T08:27:39.810Z,78.83
2023-04-09T08:30:08.650Z,78.94
2023-04-09T08:32:37.029Z,79.00
2023-04-09T08:35:06.432Z,79.05
2023-04-09T08:37:35.411Z,78.84
2023-04-09T08:40:03.676Z,78.05
2023-04-09T08:42:34.160Z,78.30
2023-04-09T08:45:04.910Z,78.66
2023-04-09T08:47:35.320Z,78.71
2023-04-09T08:50:04.478Z,78.65
2023-04-09T08:52:34.226Z,78.44
2023-04-09T08:55:02.263Z,78.59
2023-04-09T08:57:30.146Z,78.47
2023-04-09T08:59:59.031Z,78.48
2023-04-09T09:02:27.464Z,78.63
2023-04-09T09:05:00.912Z,78.66
2023-04-09T09:07:32.100Z,78.68
2023-04-09T09:10:03.802Z,78.70
2023-04-09T09:12:40.601Z,78.59
2023-04-09T09:15:29.667Z,78.47
2023-04-09T09:18:00.130Z,78.46
2023-04-09T09:20:28.033Z,78.53
2023-04-09T09:22:57.192Z,78.45
2023-04-09T09:25:26.776Z,78.49
2023-04-09T09:27:54.872Z,78.47
2023-04-09T09:30:27.600Z,78.40
2023-04-09T09:33:10.718Z,78.51
2023-04-09T09:35:54.183Z,78.32
2023-04-09T09:38:22.176Z,78.25
2023-04-09T09:40:50.407Z,78.26
2023-04-09T09:43:18.818Z,78.30
2023-04-09T09:45:48.301Z,78.19
2023-04-09T09:48:16.534Z,78.12
2023-04-09T09:50:47.731Z,78.10
2023-04-09T09:53:23.166Z,78.39
2023-04-09T09:55:57.350Z,78.38
2023-04-09T09:58:32.089Z,78.14
2023-04-09T10:01:01.455Z,77.82
2023-04-09T10:03:32.240Z,78.04
2023-04-09T10:06:03.121Z,78.08
2023-04-09T10:08:34.181Z,78.04
2023-04-09T10:11:02.750Z,78.12
2023-04-09T10:13:45.430Z,78.13
2023-04-09T10:16:14.380Z,77.89
2023-04-09T10:18:43.751Z,77.90
2023-04-09T10:21:24.775Z,77.81
2023-04-09T10:23:53.785Z,77.60
2023-04-09T10:26:22.295Z,77.58
2023-04-09T10:29:08.862Z,77.62
2023-04-09T10:31:50.039Z,77.61
2023-04-09T10:34:20.532Z,77.51
2023-04-09T10:36:55.364Z,77.05
2023-04-09T10:39:28.625Z,77.17
2023-04-09T10:41:58.506Z,77.52
2023-04-09T10:44:27.845Z,77.56
2023-04-09T10:46:56.253Z,77.38
2023-04-09T10:49:27.079Z,77.23
2023-04-09T10:52:02.421Z,77.25
2023-04-09T10:54:33.927Z,77.09
2023-04-09T10:57:07.929Z,77.25
2023-04-09T10:59:39.153Z,77.04
2023-04-09T11:02:18.643Z,76.85
2023-04-09T11:05:06.435Z,76.94
2023-04-09T11:07:40.658Z,76.67
2023-04-09T11:10:09.096Z,76.65
2023-04-09T11:12:36.899Z,76.77
2023-04-09T11:15:05.836Z,76.83
2023-04-09T11:17:37.040Z,76.71
2023-04-09T11:20:06.052Z,76.32
2023-04-09T11:22:34.357Z,76.23
2023-04-09T11:25:03.140Z,76.32
2023-04-09T11:27:30.884Z,76.22
2023-04-09T11:30:01.769Z,75.87
2023-04-09T11:32:31.440Z,76.13
2023-04-09T11:34:59.839Z,75.36
2023-04-09T11:37:28.286Z,75.38
2023-04-09T11:39:57.973Z,75.54
2023-04-09T11:42:25.922Z,75.59
2023-04-09T11:44:54.260Z,75.21
2023-04-09T11:47:22.299Z,74.13
2023-04-09T11:49:50.708Z,74.91
2023-04-09T11:52:19.357Z,75.01
2023-04-09T11:54:50.417Z,75.06
2023-04-09T11:57:18.091Z,74.74
2023-04-09T11:59:46.371Z,74.43
2023-04-09T12:02:19.476Z,73.76
2023-04-09T12:04:51.233Z,74.14
2023-04-09T12:07:19.091Z,74.25
2023-04-09T12:09:48.775Z,74.14
2023-04-09T12:12:21.491Z,74.27
2023-04-09T12:14:51.996Z,73.95
2023-04-09T12:17:21.305Z,74.22
2023-04-09T12:19:49.356Z,74.31
2023-04-09T12:22:17.175Z,74.03
2023-04-09T12:24:45.044Z,74.00
2023-04-09T12:27:13.920Z,73.97
2023-04-09T12:29:41.679Z,73.92
2023-04-09T12:32:09.451Z,73.88
2023-04-09T12:34:37.549Z,73.86
2023-04-09T12:37:05.626Z,73.89
2023-04-09T12:39:34.407Z,73.83
2023-04-09T12:42:02.471Z,73.59
2023-04-09T12:44:33.210Z,73.72
2023-04-09T12:47:01.275Z,73.77
2023-04-09T12:49:29.577Z,73.57
2023-04-09T12:51:57.347Z,73.54
2023-04-09T12:54:25.168Z,73.60
2023-04-09T12:56:53.128Z,73.56
2023-04-09T12:59:21.337Z,73.49
2023-04-09T13:01:49.193Z,73.39
2023-04-09T13:04:17.369Z,73.34
2023-04-09T13:06:45.720Z,73.07
2023-04-09T13:09:13.434Z,73.14
2023-04-09T13:11:41.303Z,72.88
2023-04-09T13:14:13.554Z,73.22
2023-04-09T13:16:41.966Z,72.88
2023-04-09T13:19:10.382Z,73.13
2023-04-09T13:21:38.084Z,73.01
2023-04-09T13:24:06.922Z,72.81
2023-04-09T13:26:34.633Z,72.57
2023-04-09T13:29:03.527Z,72.58
2023-04-09T13:31:31.372Z,72.52
2023-04-09T13:33:59.267Z,72.58
2023-04-09T13:36:27.829Z,72.37
2023-04-09T13:38:56.444Z,72.46
2023-04-09T13:41:29.777Z,72.35
2023-04-09T13:43:59.887Z,72.04
2023-04-09T13:46:28.377Z,72.30
2023-04-09T13:48:56.145Z,72.08
2023-04-09T13:51:24.237Z,72.05
2023-04-09T13:53:52.825Z,72.04
2023-04-09T13:56:20.896Z,71.51
2023-04-09T13:58:49.110Z,71.83
2023-04-09T14:01:17.746Z,71.74
2023-04-09T14:03:45.691Z,72.02
2023-04-09T14:06:13.723Z,71.97
2023-04-09T14:08:42.290Z,71.72
2023-04-09T14:11:14.123Z,71.29
2023-04-09T14:13:41.869Z,71.63
2023-04-09T14:16:10.018Z,71.67
2023-04-09T14:18:39.436Z,71.31
2023-04-09T14:21:09.982Z,71.03
2023-04-09T14:23:41.501Z,71.00
2023-04-09T14:26:09.819Z,70.65
2023-04-09T14:28:38.066Z,71.01
2023-04-09T14:31:06.418Z,71.05
2023-04-09T14:33:34.228Z,70.70
2023-04-09T14:36:02.521Z,71.01
2023-04-09T14:38:30.307Z,70.54
2023-04-09T14:40:58.376Z,70.84
2023-04-09T14:43:26.320Z,70.86
2023-04-09T14:45:54.786Z,70.80
2023-04-09T14:48:23.100Z,70.79
2023-04-09T14:50:51.805Z,70.95
2023-04-09T14:53:19.562Z,70.92
2023-04-09T14:55:47.764Z,70.66
2023-04-09T14:58:15.523Z,70.63
2023-04-09T15:00:44.993Z,70.46
2023-04-09T15:03:13.396Z,70.40
2023-04-09T15:05:41.525Z,70.16
2023-04-09T15:08:09.328Z,70.46
2023-04-09T15:10:37.880Z,70.48
2023-04-09T15:13:05.970Z,70.37
2023-04-09T15:15:34.060Z,70.33
2023-04-09T15:18:05.914Z,70.27
2023-04-09T15:20:39.232Z,70.26
2023-04-09T15:23:07.134Z,70.38
2023-04-09T15:25:34.973Z,70.39
2023-04-09T15:28:03.591Z,70.29
2023-04-09T15:30:32.192Z,70.23
2023-04-09T15:33:00.615Z,70.37
2023-04-09T15:35:29.467Z,70.03
2023-04-09T15:37:57.743Z,69.84
2023-04-09T15:40:25.556Z,69.93
2023-04-09T15:42:53.314Z,70.01
2023-04-09T15:45:21.461Z,70.01
2023-04-09T15:47:49.268Z,69.98
2023-04-09T15:50:17.076Z,70.01
2023-04-09T15:52:45.286Z,69.92
2023-04-09T15:55:13.016Z,69.75
2023-04-09T15:57:40.868Z,69.66
2023-04-09T16:00:10.693Z,69.75
2023-04-09T16:02:39.112Z,69.58
2023-04-09T16:05:07.752Z,69.66
2023-04-09T16:07:35.951Z,69.62
2023-04-09T16:10:04.964Z,69.68
2023-04-09T16:12:32.851Z,69.50
2023-04-09T16:15:01.638Z,69.56
2023-04-09T16:17:34.523Z,69.66
2023-04-09T16:20:08.623Z,69.57
2023-04-09T16:22:37.083Z,69.52
2023-04-09T16:25:05.373Z,69.61
2023-04-09T16:27:33.773Z,69.50
2023-04-09T16:30:02.018Z,69.50
2023-04-09T16:32:29.894Z,69.52
2023-04-09T16:35:00.907Z,69.57
2023-04-09T16:37:29.423Z,69.57
2023-04-09T16:39:58.187Z,69.49
2023-04-09T16:42:27.640Z,69.49
2023-04-09T16:44:55.696Z,69.44
2023-04-09T16:47:23.536Z,69.50
2023-04-09T16:49:51.836Z,69.45
2023-04-09T16:52:20.042Z,69.50
2023-04-09T16:54:47.759Z,69.45
2023-04-09T16:57:16.679Z,69.57
2023-04-09T16:59:45.208Z,69.54
2023-04-09T17:02:12.959Z,69.49
2023-04-09T17:04:42.395Z,69.58
2023-04-09T17:07:10.637Z,69.54
2023-04-09T17:09:38.345Z,69.60
2023-04-09T17:12:06.405Z,69.56
2023-04-09T17:14:34.557Z,69.57
2023-04-09T17:17:02.728Z,69.50
2023-04-09T17:19:31.513Z,69.61
2023-04-09T17:22:00.234Z,69.55
2023-04-09T17:24:28.118Z,69.62
2023-04-09T17:26:56.790Z,69.64
2023-04-09T17:29:24.484Z,69.49
2023-04-09T17:31:53.310Z,69.65
2023-04-09T17:34:21.949Z,69.66
2023-04-09T17:36:56.405Z,69.65
2023-04-09T17:39:24.514Z,69.61
2023-04-09T17:41:53.664Z,69.69
2023-04-09T17:44:21.776Z,69.53
2023-04-09T17:46:49.625Z,69.62
2023-04-09T17:49:17.916Z,69.69
2023-04-09T17:51:46.264Z,69.72
2023-04-09T17:54:14.911Z,69.79
2023-04-09T17:56:42.748Z,69.67
2023-04-09T17:59:10.630Z,69.70
2023-04-09T18:01:38.452Z,69.78
2023-04-09T18:04:06.982Z,69.59
2023-04-09T18:06:35.360Z,69.82
2023-04-09T18:09:03.324Z,69.57
2023-04-09T18:11:31.353Z,69.65
2023-04-09T18:13:59.140Z,69.75
2023-04-09T18:16:28.432Z,69.75
2023-04-09T18:18:56.882Z,69.75
2023-04-09T18:21:25.106Z,69.60
2023-04-09T18:23:52.954Z,69.67
2023-04-09T18:26:20.780Z,69.64
2023-04-09T18:28:48.515Z,69.67
2023-04-09T18:31:16.513Z,69.81
2023-04-09T18:33:44.794Z,69.82
2023-04-09T18:36:13.429Z,69.78
2023-04-09T18:38:41.297Z,69.74
2023-04-09T18:41:11.054Z,69.83
2023-04-09T18:43:38.887Z,69.91
2023-04-09T18:46:06.818Z,69.85
2023-04-09T18:48:35.802Z,69.89
2023-04-09T18:51:04.560Z,70.04
2023-04-09T18:53:32.335Z,70.10
2023-04-09T18:58:46.581Z,70.38
2023-04-09T19:01:14.757Z,70.18
2023-04-09T19:03:43.260Z,70.25
2023-04-09T19:06:19.152Z,70.17
2023-04-09T19:08:48.348Z,70.16
2023-04-09T19:11:16.646Z,70.30
2023-04-09T19:13:44.596Z,70.50
2023-04-09T19:16:12.421Z,70.48
2023-04-09T19:18:40.193Z,70.14
2023-04-09T19:21:08.488Z,70.37
2023-04-09T19:23:36.828Z,70.33
2023-04-09T19:26:05.631Z,70.40
2023-04-09T19:28:33.612Z,70.39
2023-04-09T19:31:03.420Z,70.51
2023-04-09T19:33:31.921Z,70.45
2023-04-09T19:35:59.919Z,70.57
2023-04-09T19:38:28.382Z,70.48
2023-04-09T19:40:56.500Z,70.48
2023-04-09T19:43:24.556Z,70.47
2023-04-09T19:45:52.318Z,70.50
2023-04-09T19:48:20.136Z,70.48
2023-04-09T19:50:49.015Z,70.56
2023-04-09T19:53:18.583Z,70.57
2023-04-09T19:55:46.541Z,70.59
2023-04-09T19:58:14.344Z,70.68
2023-04-09T20:00:42.156Z,70.61
2023-04-09T20:03:10.652Z,70.60
2023-04-09T20:05:38.998Z,70.73
2023-04-09T20:08:12.211Z,70.87
2023-04-09T20:10:45.119Z,70.75
2023-04-09T20:13:13.665Z,70.76
2023-04-09T20:15:41.899Z,70.87
2023-04-09T20:18:10.525Z,70.85
2023-04-09T20:20:38.787Z,70.84
2023-04-09T20:23:06.523Z,70.72
2023-04-09T20:25:36.724Z,70.90
2023-04-09T20:28:04.891Z,70.96
2023-04-09T20:30:32.708Z,70.88
2023-04-09T20:33:01.462Z,71.19
2023-04-09T20:35:29.728Z,71.00
2023-04-09T20:37:57.423Z,70.98
2023-04-09T20:40:25.568Z,71.09
2023-04-09T20:42:53.350Z,71.02
2023-04-09T20:45:21.167Z,71.21
2023-04-09T20:47:53.338Z,71.33
2023-04-09T20:50:22.048Z,71.26
2023-04-09T20:52:49.898Z,71.20
2023-04-09T20:55:18.160Z,71.44
2023-04-09T20:57:45.963Z,71.35
2023-04-09T21:00:14.735Z,71.37
2023-04-09T21:02:43.199Z,71.56
2023-04-09T21:05:21.887Z,71.72
2023-04-09T21:07:52.784Z,71.61
2023-04-09T21:10:21.338Z,71.78
2023-04-09T21:12:49.687Z,71.73
2023-04-09T21:15:17.730Z,71.75
2023-04-09T21:17:45.662Z,71.67
2023-04-09T21:20:15.211Z,71.72
2023-04-09T21:22:42.983Z,71.77
2023-04-09T21:25:12.735Z,71.82
2023-04-09T21:27:42.948Z,71.74
2023-04-09T21:30:11.196Z,71.86
2023-04-09T21:32:38.954Z,71.88
2023-04-09T21:35:07.048Z,71.85
2023-04-09T21:37:37.575Z,71.87
2023-04-09T21:40:06.543Z,71.97
2023-04-09T21:42:34.720Z,71.98
2023-04-09T21:45:03.208Z,72.15
2023-04-09T21:47:32.059Z,71.91
2023-04-09T21:50:00.045Z,71.90
2023-04-09T21:52:28.324Z,72.03
2023-04-09T21:54:57.172Z,72.09
2023-04-09T21:57:24.919Z,72.14
2023-04-09T21:59:54.006Z,72.36
2023-04-09T22:02:22.284Z,72.28
2023-04-09T22:04:50.790Z,72.28
2023-04-09T22:07:18.688Z,72.39
2023-04-09T22:09:48.831Z,72.46
2023-04-09T22:12:16.621Z,72.33
2023-04-09T22:14:46.041Z,72.45
2023-04-09T22:17:13.849Z,72.50
2023-04-09T22:19:44.249Z,72.50
2023-04-09T22:22:13.641Z,72.27
2023-04-09T22:24:41.922Z,72.52
2023-04-09T22:27:13.084Z,72.66
2023-04-09T22:29:40.980Z,72.57
2023-04-09T22:32:09.483Z,72.49
2023-04-09T22:34:37.449Z,72.66
2023-04-09T22:37:05.185Z,72.67
2023-04-09T22:39:33.096Z,72.64
2023-04-09T22:42:01.875Z,72.62
2023-04-09T22:44:29.800Z,72.77
2023-04-09T22:46:57.717Z,72.84
2023-04-09T22:49:26.124Z,72.80
2023-04-09T22:51:54.890Z,72.82
2023-04-09T22:54:22.972Z,72.85
2023-04-09T22:56:50.894Z,72.96
2023-04-09T22:59:19.976Z,72.75
2023-04-09T23:01:49.960Z,73.09
2023-04-09T23:04:22.988Z,72.91
2023-04-09T23:06:51.267Z,72.95
2023-04-09T23:09:19.000Z,73.12
2023-04-09T23:11:46.857Z,72.87
2023-04-09T23:14:15.073Z,72.99
2023-04-09T23:16:43.767Z,73.01
2023-04-09T23:19:11.839Z,73.18
2023-04-09T23:21:39.587Z,73.09
2023-04-09T23:24:07.368Z,73.06
2023-04-09T23:26:35.038Z,73.18
2023-04-09T23:29:12.474Z,73.28
2023-04-09T23:31:41.152Z,73.03
2023-04-09T23:34:08.968Z,73.10
2023-04-09T23:36:36.681Z,73.11
2023-04-09T23:39:04.439Z,73.18
2023-04-09T23:41:32.591Z,73.52
2023-04-09T23:44:00.992Z,73.30
2023-04-09T23:46:28.783Z,73.18
2023-04-09T23:49:00.485Z,73.48
2023-04-09T23:51:28.352Z,73.72
2023-04-09T23:53:56.171Z,73.79
2023-04-09T23:56:25.230Z,73.56
2023-04-09T23:58:53.412Z,73.75
